sensor_id;sensor_type;location;lat;lon;timestamp;pressure;altitude;pressure_sealevel;temperature;humidity
63700;BME280;49845;47.130;142.766;2023-09-19T00:02:16;100075.41;;;19.57;100.00
63700;BME280;49845;47.130;142.766;2023-09-19T00:04:47;100074.06;;;19.50;100.00
63700;BME280;49845;47.130;142.766;2023-09-19T00:07:18;100070.81;;;19.45;100.00
63700;BME280;49845;47.130;142.766;2023-09-19T00:09:50;100060.72;;;19.35;100.00
63700;BME280;49845;47.130;142.766;2023-09-19T00:12:22;100069.09;;;19.44;100.00
63700;BME280;49845;47.130;142.766;2023-09-19T00:14:52;100064.19;;;19.52;100.00
63700;BME280;49845;47.130;142.766;2023-09-19T00:17:24;100065.13;;;19.67;100.00
63700;BME280;49845;47.130;142.766;2023-09-19T00:19:54;100064.78;;;19.89;100.00
63700;BME280;49845;47.130;142.766;2023-09-19T00:22:25;100059.56;;;20.17;99.65
63700;BME280;49845;47.130;142.766;2023-09-19T00:24:56;100057.31;;;20.54;99.08
63700;BME280;49845;47.130;142.766;2023-09-19T00:27:29;100066.97;;;20.57;96.49
63700;BME280;49845;47.130;142.766;2023-09-19T00:30:00;100068.34;;;20.48;95.61
63700;BME280;49845;47.130;142.766;2023-09-19T00:32:33;100057.00;;;20.60;94.99
63700;BME280;49845;47.130;142.766;2023-09-19T00:35:04;100055.13;;;20.62;94.93
63700;BME280;49845;47.130;142.766;2023-09-19T00:37:36;100044.03;;;20.70;94.96
63700;BME280;49845;47.130;142.766;2023-09-19T00:40:09;100046.00;;;20.81;93.95
63700;BME280;49845;47.130;142.766;2023-09-19T00:42:43;100033.84;;;20.91;94.01
63700;BME280;49845;47.130;142.766;2023-09-19T00:45:15;100041.25;;;21.00;92.75
63700;BME280;49845;47.130;142.766;2023-09-19T00:47:48;100044.09;;;20.97;92.22
63700;BME280;49845;47.130;142.766;2023-09-19T00:50:22;100029.84;;;20.98;92.69
63700;BME280;49845;47.130;142.766;2023-09-19T00:52:54;100014.50;;;20.89;91.29
63700;BME280;49845;47.130;142.766;2023-09-19T00:55:26;100036.31;;;20.94;91.84
63700;BME280;49845;47.130;142.766;2023-09-19T00:58:03;100027.69;;;20.90;91.46
63700;BME280;49845;47.130;142.766;2023-09-19T01:00:36;100023.63;;;20.85;91.19
63700;BME280;49845;47.130;142.766;2023-09-19T01:03:07;99998.22;;;20.66;91.52
63700;BME280;49845;47.130;142.766;2023-09-19T01:05:38;99998.03;;;20.70;91.87
63700;BME280;49845;47.130;142.766;2023-09-19T01:08:09;99996.50;;;20.80;92.36
63700;BME280;49845;47.130;142.766;2023-09-19T01:10:46;99989.66;;;20.90;92.32
63700;BME280;49845;47.130;142.766;2023-09-19T01:13:29;99985.66;;;20.97;92.73
63700;BME280;49845;47.130;142.766;2023-09-19T01:16:09;99982.91;;;20.99;92.61
63700;BME280;49845;47.130;142.766;2023-09-19T01:18:47;99989.09;;;20.99;92.11
63700;BME280;49845;47.130;142.766;2023-09-19T01:21:27;99930.06;;;20.67;92.14
63700;BME280;49845;47.130;142.766;2023-09-19T01:24:16;99984.88;;;21.09;91.20
63700;BME280;49845;47.130;142.766;2023-09-19T01:27:17;99970.50;;;20.99;90.66
63700;BME280;49845;47.130;142.766;2023-09-19T01:29:50;99948.66;;;20.94;90.85
63700;BME280;49845;47.130;142.766;2023-09-19T01:32:26;99958.91;;;21.00;91.21
63700;BME280;49845;47.130;142.766;2023-09-19T01:34:57;99936.00;;;20.85;90.87
63700;BME280;49845;47.130;142.766;2023-09-19T01:37:32;99949.00;;;20.75;91.60
63700;BME280;49845;47.130;142.766;2023-09-19T01:40:04;99906.28;;;20.37;92.68
63700;BME280;49845;47.130;142.766;2023-09-19T01:42:50;99933.94;;;20.47;93.58
63700;BME280;49845;47.130;142.766;2023-09-19T01:45:30;99927.50;;;20.37;94.68
63700;BME280;49845;47.130;142.766;2023-09-19T01:48:13;99937.72;;;20.43;95.86
63700;BME280;49845;47.130;142.766;2023-09-19T01:50:55;99929.97;;;20.40;96.69
63700;BME280;49845;47.130;142.766;2023-09-19T01:53:35;99937.16;;;20.38;96.88
63700;BME280;49845;47.130;142.766;2023-09-19T01:56:09;99931.78;;;20.39;97.39
63700;BME280;49845;47.130;142.766;2023-09-19T01:58:46;99927.31;;;20.40;97.12
63700;BME280;49845;47.130;142.766;2023-09-19T02:01:22;99881.28;;;20.12;96.94
63700;BME280;49845;47.130;142.766;2023-09-19T02:03:55;99908.94;;;20.37;97.19
63700;BME280;49845;47.130;142.766;2023-09-19T02:06:25;99907.41;;;20.47;97.85
63700;BME280;49845;47.130;142.766;2023-09-19T02:08:56;99903.38;;;20.54;97.72
63700;BME280;49845;47.130;142.766;2023-09-19T02:11:28;99895.84;;;20.62;97.32
63700;BME280;49845;47.130;142.766;2023-09-19T02:13:59;99885.91;;;20.79;97.24
63700;BME280;49845;47.130;142.766;2023-09-19T02:16:29;99884.81;;;20.96;97.31
63700;BME280;49845;47.130;142.766;2023-09-19T02:19:01;99878.16;;;21.03;95.51
63700;BME280;49845;47.130;142.766;2023-09-19T02:21:33;99860.06;;;20.95;95.76
63700;BME280;49845;47.130;142.766;2023-09-19T02:24:04;99874.13;;;20.97;94.49
63700;BME280;49845;47.130;142.766;2023-09-19T02:26:36;99801.22;;;20.61;95.08
63700;BME280;49845;47.130;142.766;2023-09-19T02:29:06;99869.69;;;21.10;95.75
63700;BME280;49845;47.130;142.766;2023-09-19T02:31:37;99861.72;;;21.10;95.80
63700;BME280;49845;47.130;142.766;2023-09-19T02:34:10;99869.91;;;21.07;95.18
63700;BME280;49845;47.130;142.766;2023-09-19T02:36:42;99861.97;;;20.93;95.23
63700;BME280;49845;47.130;142.766;2023-09-19T02:39:14;99873.59;;;20.78;95.33
63700;BME280;49845;47.130;142.766;2023-09-19T02:41:45;99874.81;;;20.59;96.22
63700;BME280;49845;47.130;142.766;2023-09-19T02:44:16;99867.03;;;20.42;97.22
63700;BME280;49845;47.130;142.766;2023-09-19T02:46:48;99872.72;;;20.36;98.09
63700;BME280;49845;47.130;142.766;2023-09-19T02:49:21;99863.06;;;20.35;98.70
63700;BME280;49845;47.130;142.766;2023-09-19T02:51:52;99865.31;;;20.41;100.00
63700;BME280;49845;47.130;142.766;2023-09-19T02:54:23;99865.88;;;20.46;100.00
63700;BME280;49845;47.130;142.766;2023-09-19T02:56:53;99858.50;;;20.37;99.13
63700;BME280;49845;47.130;142.766;2023-09-19T02:59:24;99829.34;;;20.08;99.00
63700;BME280;49845;47.130;142.766;2023-09-19T03:01:57;99850.94;;;20.16;99.18
63700;BME280;49845;47.130;142.766;2023-09-19T03:04:30;99843.47;;;20.09;100.00
63700;BME280;49845;47.130;142.766;2023-09-19T03:07:01;99837.88;;;19.99;100.00
63700;BME280;49845;47.130;142.766;2023-09-19T03:09:32;99835.25;;;19.85;100.00
63700;BME280;49845;47.130;142.766;2023-09-19T03:12:04;99828.22;;;19.83;100.00
63700;BME280;49845;47.130;142.766;2023-09-19T03:14:35;99824.81;;;19.81;100.00
63700;BME280;49845;47.130;142.766;2023-09-19T03:17:05;99817.81;;;19.80;100.00
63700;BME280;49845;47.130;142.766;2023-09-19T03:19:39;99814.59;;;19.75;100.00
63700;BME280;49845;47.130;142.766;2023-09-19T03:22:10;99792.78;;;19.56;100.00
63700;BME280;49845;47.130;142.766;2023-09-19T03:24:40;99805.56;;;19.64;100.00
63700;BME280;49845;47.130;142.766;2023-09-19T03:27:13;99799.06;;;19.69;100.00
63700;BME280;49845;47.130;142.766;2023-09-19T03:29:45;99792.53;;;19.75;100.00
63700;BME280;49845;47.130;142.766;2023-09-19T03:32:17;99791.94;;;19.84;100.00
63700;BME280;49845;47.130;142.766;2023-09-19T03:34:50;99784.13;;;19.82;100.00
63700;BME280;49845;47.130;142.766;2023-09-19T03:37:21;99778.81;;;19.82;100.00
63700;BME280;49845;47.130;142.766;2023-09-19T03:39:51;99768.41;;;19.79;100.00
63700;BME280;49845;47.130;142.766;2023-09-19T03:42:22;99767.81;;;19.74;100.00
63700;BME280;49845;47.130;142.766;2023-09-19T03:44:55;99769.81;;;19.71;100.00
63700;BME280;49845;47.130;142.766;2023-09-19T03:47:26;99771.69;;;19.69;100.00
63700;BME280;49845;47.130;142.766;2023-09-19T03:49:58;99763.28;;;19.76;100.00
63700;BME280;49845;47.130;142.766;2023-09-19T03:52:29;99766.47;;;19.81;100.00
63700;BME280;49845;47.130;142.766;2023-09-19T03:54:59;99758.38;;;19.85;100.00
63700;BME280;49845;47.130;142.766;2023-09-19T03:57:32;99756.28;;;19.75;100.00
63700;BME280;49845;47.130;142.766;2023-09-19T04:00:05;99748.84;;;19.66;100.00
63700;BME280;49845;47.130;142.766;2023-09-19T04:02:40;99728.63;;;19.51;100.00
63700;BME280;49845;47.130;142.766;2023-09-19T04:05:12;99732.22;;;19.50;100.00
63700;BME280;49845;47.130;142.766;2023-09-19T04:07:44;99713.47;;;19.53;100.00
63700;BME280;49845;47.130;142.766;2023-09-19T04:10:14;99700.38;;;19.64;100.00
63700;BME280;49845;47.130;142.766;2023-09-19T04:12:51;99693.13;;;19.82;100.00
63700;BME280;49845;47.130;142.766;2023-09-19T04:15:23;99686.78;;;19.85;100.00
63700;BME280;49845;47.130;142.766;2023-09-19T04:17:53;99703.97;;;19.92;100.00
63700;BME280;49845;47.130;142.766;2023-09-19T04:20:25;99692.53;;;19.91;100.00
63700;BME280;49845;47.130;142.766;2023-09-19T04:22:56;99691.69;;;19.91;100.00
63700;BME280;49845;47.130;142.766;2023-09-19T04:25:28;99705.69;;;19.93;100.00
63700;BME280;49845;47.130;142.766;2023-09-19T04:27:59;99693.00;;;19.98;100.00
63700;BME280;49845;47.130;142.766;2023-09-19T04:30:29;99692.59;;;20.04;100.00
63700;BME280;49845;47.130;142.766;2023-09-19T04:33:00;99689.19;;;20.02;100.00
63700;BME280;49845;47.130;142.766;2023-09-19T04:35:36;99692.44;;;19.93;100.00
63700;BME280;49845;47.130;142.766;2023-09-19T04:38:12;99695.66;;;19.83;100.00
63700;BME280;49845;47.130;142.766;2023-09-19T04:40:44;99683.75;;;19.76;100.00
63700;BME280;49845;47.130;142.766;2023-09-19T04:43:14;99684.16;;;19.70;100.00
63700;BME280;49845;47.130;142.766;2023-09-19T04:45:45;99674.09;;;19.61;100.00
63700;BME280;49845;47.130;142.766;2023-09-19T04:48:16;99668.22;;;19.56;100.00
63700;BME280;49845;47.130;142.766;2023-09-19T04:50:50;99653.66;;;19.49;100.00
63700;BME280;49845;47.130;142.766;2023-09-19T04:53:21;99653.94;;;19.44;100.00
63700;BME280;49845;47.130;142.766;2023-09-19T04:55:52;99648.97;;;19.39;100.00
63700;BME280;49845;47.130;142.766;2023-09-19T04:58:24;99642.13;;;19.35;100.00
63700;BME280;49845;47.130;142.766;2023-09-19T05:00:54;99532.44;;;18.68;100.00
63700;BME280;49845;47.130;142.766;2023-09-19T05:03:25;99639.50;;;19.21;100.00
63700;BME280;49845;47.130;142.766;2023-09-19T05:05:57;99622.66;;;19.08;100.00
63700;BME280;49845;47.130;142.766;2023-09-19T05:08:28;99628.16;;;19.05;100.00
63700;BME280;49845;47.130;142.766;2023-09-19T05:10:58;99630.41;;;18.96;100.00
63700;BME280;49845;47.130;142.766;2023-09-19T05:13:31;99605.41;;;18.72;100.00
63700;BME280;49845;47.130;142.766;2023-09-19T05:16:02;99619.25;;;18.77;100.00
63700;BME280;49845;47.130;142.766;2023-09-19T05:18:33;99615.13;;;18.71;100.00
63700;BME280;49845;47.130;142.766;2023-09-19T05:21:06;99607.31;;;18.70;100.00
63700;BME280;49845;47.130;142.766;2023-09-19T05:23:36;99555.94;;;18.44;100.00
63700;BME280;49845;47.130;142.766;2023-09-19T05:26:07;99600.28;;;18.69;100.00
63700;BME280;49845;47.130;142.766;2023-09-19T05:28:38;99597.56;;;18.70;100.00
63700;BME280;49845;47.130;142.766;2023-09-19T05:31:09;99591.25;;;18.73;100.00
63700;BME280;49845;47.130;142.766;2023-09-19T05:33:40;99575.44;;;18.57;100.00
63700;BME280;49845;47.130;142.766;2023-09-19T05:36:12;99594.66;;;18.75;100.00
63700;BME280;49845;47.130;142.766;2023-09-19T05:38:44;99594.50;;;18.78;100.00
63700;BME280;49845;47.130;142.766;2023-09-19T05:41:18;99588.34;;;18.78;100.00
63700;BME280;49845;47.130;142.766;2023-09-19T05:43:49;99587.31;;;18.80;100.00
63700;BME280;49845;47.130;142.766;2023-09-19T05:46:20;99573.13;;;18.81;100.00
63700;BME280;49845;47.130;142.766;2023-09-19T05:48:51;99569.72;;;18.79;100.00
63700;BME280;49845;47.130;142.766;2023-09-19T05:51:23;99509.38;;;18.56;100.00
63700;BME280;49845;47.130;142.766;2023-09-19T05:53:57;99546.09;;;18.90;100.00
63700;BME280;49845;47.130;142.766;2023-09-19T05:56:27;99541.56;;;18.92;100.00
63700;BME280;49845;47.130;142.766;2023-09-19T05:58:58;99534.53;;;18.91;100.00
63700;BME280;49845;47.130;142.766;2023-09-19T06:01:29;99531.69;;;18.94;100.00
63700;BME280;49845;47.130;142.766;2023-09-19T06:04:00;99513.00;;;18.98;100.00
63700;BME280;49845;47.130;142.766;2023-09-19T06:06:34;99509.75;;;19.07;100.00
63700;BME280;49845;47.130;142.766;2023-09-19T06:09:07;99502.28;;;19.13;100.00
63700;BME280;49845;47.130;142.766;2023-09-19T06:11:38;99511.72;;;19.17;100.00
63700;BME280;49845;47.130;142.766;2023-09-19T06:14:09;99493.69;;;19.10;100.00
63700;BME280;49845;47.130;142.766;2023-09-19T06:16:40;99501.03;;;19.19;100.00
63700;BME280;49845;47.130;142.766;2023-09-19T06:19:12;99497.53;;;19.18;100.00
63700;BME280;49845;47.130;142.766;2023-09-19T06:21:45;99503.88;;;19.16;100.00
63700;BME280;49845;47.130;142.766;2023-09-19T06:24:22;99493.28;;;19.16;100.00
63700;BME280;49845;47.130;142.766;2023-09-19T06:26:55;99481.16;;;19.12;100.00
63700;BME280;49845;47.130;142.766;2023-09-19T06:29:30;99463.50;;;19.12;100.00
63700;BME280;49845;47.130;142.766;2023-09-19T06:32:02;99471.72;;;19.22;100.00
63700;BME280;49845;47.130;142.766;2023-09-19T06:34:37;99468.09;;;19.23;100.00
63700;BME280;49845;47.130;142.766;2023-09-19T06:37:13;99455.63;;;19.25;100.00
63700;BME280;49845;47.130;142.766;2023-09-19T06:39:44;99466.00;;;19.28;100.00
63700;BME280;49845;47.130;142.766;2023-09-19T06:42:14;99458.59;;;19.33;100.00
63700;BME280;49845;47.130;142.766;2023-09-19T06:44:48;99460.50;;;19.31;100.00
63700;BME280;49845;47.130;142.766;2023-09-19T06:47:19;99444.22;;;19.37;100.00
63700;BME280;49845;47.130;142.766;2023-09-19T06:49:49;99436.81;;;19.43;100.00
63700;BME280;49845;47.130;142.766;2023-09-19T06:52:22;99436.00;;;19.55;100.00
63700;BME280;49845;47.130;142.766;2023-09-19T06:54:54;99433.91;;;19.60;100.00
63700;BME280;49845;47.130;142.766;2023-09-19T06:57:25;99434.75;;;19.60;100.00
63700;BME280;49845;47.130;142.766;2023-09-19T06:59:56;99411.16;;;19.43;100.00
63700;BME280;49845;47.130;142.766;2023-09-19T07:02:26;99447.75;;;19.51;100.00
63700;BME280;49845;47.130;142.766;2023-09-19T07:04:57;99442.50;;;19.36;100.00
63700;BME280;49845;47.130;142.766;2023-09-19T07:07:30;99447.97;;;19.21;100.00
63700;BME280;49845;47.130;142.766;2023-09-19T07:10:03;99350.06;;;18.65;100.00
63700;BME280;49845;47.130;142.766;2023-09-19T07:12:35;99430.94;;;18.98;100.00
63700;BME280;49845;47.130;142.766;2023-09-19T07:15:06;99412.97;;;18.88;100.00
63700;BME280;49845;47.130;142.766;2023-09-19T07:17:37;99418.56;;;18.84;100.00
63700;BME280;49845;47.130;142.766;2023-09-19T07:20:09;99404.09;;;18.75;100.00
63700;BME280;49845;47.130;142.766;2023-09-19T07:22:46;99384.28;;;18.53;100.00
63700;BME280;49845;47.130;142.766;2023-09-19T07:25:19;99413.94;;;18.59;100.00
63700;BME280;49845;47.130;142.766;2023-09-19T07:27:49;99407.13;;;18.54;100.00
63700;BME280;49845;47.130;142.766;2023-09-19T07:30:21;99398.66;;;18.49;100.00
63700;BME280;49845;47.130;142.766;2023-09-19T07:32:52;99386.00;;;18.40;100.00
63700;BME280;49845;47.130;142.766;2023-09-19T07:35:23;99390.47;;;18.40;100.00
63700;BME280;49845;47.130;142.766;2023-09-19T07:37:55;99367.72;;;18.37;100.00
63700;BME280;49845;47.130;142.766;2023-09-19T07:40:27;99367.72;;;18.37;100.00
63700;BME280;49845;47.130;142.766;2023-09-19T07:42:58;99378.28;;;18.37;100.00
63700;BME280;49845;47.130;142.766;2023-09-19T07:45:29;99366.09;;;18.35;100.00
63700;BME280;49845;47.130;142.766;2023-09-19T07:48:01;99364.47;;;18.32;100.00
63700;BME280;49845;47.130;142.766;2023-09-19T07:50:35;99376.97;;;18.30;100.00
63700;BME280;49845;47.130;142.766;2023-09-19T07:53:08;99366.38;;;18.30;100.00
63700;BME280;49845;47.130;142.766;2023-09-19T07:55:40;99341.63;;;18.17;100.00
63700;BME280;49845;47.130;142.766;2023-09-19T07:58:11;99347.69;;;18.19;100.00
63700;BME280;49845;47.130;142.766;2023-09-19T08:00:42;99344.28;;;18.17;100.00
63700;BME280;49845;47.130;142.766;2023-09-19T08:03:13;99332.22;;;18.13;100.00
63700;BME280;49845;47.130;142.766;2023-09-19T08:05:45;99290.28;;;17.92;100.00
63700;BME280;49845;47.130;142.766;2023-09-19T08:08:21;99308.91;;;18.05;100.00
63700;BME280;49845;47.130;142.766;2023-09-19T08:10:55;99258.22;;;17.84;100.00
63700;BME280;49845;47.130;142.766;2023-09-19T08:13:26;99305.94;;;18.09;100.00
63700;BME280;49845;47.130;142.766;2023-09-19T08:15:59;99310.50;;;18.07;100.00
63700;BME280;49845;47.130;142.766;2023-09-19T08:18:34;99320.31;;;18.05;100.00
63700;BME280;49845;47.130;142.766;2023-09-19T08:21:06;99324.75;;;18.05;100.00
63700;BME280;49845;47.130;142.766;2023-09-19T08:23:58;99314.47;;;18.00;100.00
63700;BME280;49845;47.130;142.766;2023-09-19T08:26:30;99232.56;;;17.57;100.00
63700;BME280;49845;47.130;142.766;2023-09-19T08:29:02;99285.59;;;17.97;100.00
63700;BME280;49845;47.130;142.766;2023-09-19T08:31:36;99290.88;;;17.97;100.00
63700;BME280;49845;47.130;142.766;2023-09-19T08:34:07;99273.31;;;17.96;100.00
63700;BME280;49845;47.130;142.766;2023-09-19T08:36:39;99253.13;;;17.95;100.00
63700;BME280;49845;47.130;142.766;2023-09-19T08:39:14;99247.44;;;17.87;100.00
63700;BME280;49845;47.130;142.766;2023-09-19T08:41:46;99246.31;;;17.91;100.00
63700;BME280;49845;47.130;142.766;2023-09-19T08:44:17;99165.97;;;17.38;100.00
63700;BME280;49845;47.130;142.766;2023-09-19T08:47:03;99227.47;;;17.83;100.00
63700;BME280;49845;47.130;142.766;2023-09-19T08:49:57;99217.22;;;17.77;100.00
63700;BME280;49845;47.130;142.766;2023-09-19T08:52:40;99233.50;;;17.85;100.00
63700;BME280;49845;47.130;142.766;2023-09-19T08:55:14;99230.09;;;17.83;100.00
63700;BME280;49845;47.130;142.766;2023-09-19T08:57:50;99185.94;;;17.56;100.00
63700;BME280;49845;47.130;142.766;2023-09-19T09:00:24;99233.50;;;17.85;100.00
63700;BME280;49845;47.130;142.766;2023-09-19T09:02:59;99230.09;;;17.83;100.00
63700;BME280;49845;47.130;142.766;2023-09-19T09:05:33;99227.72;;;17.78;100.00
63700;BME280;49845;47.130;142.766;2023-09-19T09:08:10;99232.75;;;17.83;100.00
63700;BME280;49845;47.130;142.766;2023-09-19T09:10:46;99190.84;;;17.62;100.00
63700;BME280;49845;47.130;142.766;2023-09-19T09:13:18;99216.06;;;17.82;100.00
63700;BME280;49845;47.130;142.766;2023-09-19T09:15:51;99202.84;;;17.82;100.00
63700;BME280;49845;47.130;142.766;2023-09-19T09:18:23;99193.13;;;17.83;100.00
63700;BME280;49845;47.130;142.766;2023-09-19T09:20:55;99195.00;;;17.81;100.00
63700;BME280;49845;47.130;142.766;2023-09-19T09:23:28;99192.16;;;17.84;100.00
63700;BME280;49845;47.130;142.766;2023-09-19T09:26:02;99158.38;;;17.75;100.00
63700;BME280;49845;47.130;142.766;2023-09-19T09:28:36;99163.84;;;17.86;100.00
63700;BME280;49845;47.130;142.766;2023-09-19T09:31:23;99087.31;;;17.43;100.00
63700;BME280;49845;47.130;142.766;2023-09-19T09:33:55;99170.81;;;17.87;100.00
63700;BME280;49845;47.130;142.766;2023-09-19T09:36:37;99140.81;;;17.88;100.00
63700;BME280;49845;47.130;142.766;2023-09-19T09:39:10;99130.13;;;17.89;100.00
63700;BME280;49845;47.130;142.766;2023-09-19T09:41:55;99120.44;;;17.90;100.00
63700;BME280;49845;47.130;142.766;2023-09-19T09:44:28;99099.28;;;17.90;100.00
63700;BME280;49845;47.130;142.766;2023-09-19T09:47:02;99071.91;;;17.77;100.00
63700;BME280;49845;47.130;142.766;2023-09-19T09:49:50;99099.38;;;17.88;100.00
63700;BME280;49845;47.130;142.766;2023-09-19T09:52:45;99113.22;;;17.92;100.00
63700;BME280;49845;47.130;142.766;2023-09-19T09:55:17;99103.22;;;17.97;100.00
63700;BME280;49845;47.130;142.766;2023-09-19T09:58:16;99149.97;;;18.09;100.00
63700;BME280;49845;47.130;142.766;2023-09-19T10:00:56;99116.47;;;17.83;100.00
63700;BME280;49845;47.130;142.766;2023-09-19T10:03:35;99165.69;;;17.98;100.00
63700;BME280;49845;47.130;142.766;2023-09-19T10:06:11;99152.22;;;17.74;100.00
63700;BME280;49845;47.130;142.766;2023-09-19T10:09:03;99150.69;;;17.29;100.00
63700;BME280;49845;47.130;142.766;2023-09-19T10:11:44;99136.91;;;16.80;100.00
63700;BME280;49845;47.130;142.766;2023-09-19T10:14:18;99149.63;;;16.58;100.00
63700;BME280;49845;47.130;142.766;2023-09-19T10:16:57;99147.91;;;16.43;100.00
63700;BME280;49845;47.130;142.766;2023-09-19T10:19:37;99111.81;;;16.13;100.00
63700;BME280;49845;47.130;142.766;2023-09-19T10:22:16;99150.53;;;16.43;100.00
63700;BME280;49845;47.130;142.766;2023-09-19T10:24:50;99152.41;;;16.41;100.00
63700;BME280;49845;47.130;142.766;2023-09-19T10:27:31;99150.03;;;16.36;100.00
63700;BME280;49845;47.130;142.766;2023-09-19T10:30:11;99147.06;;;16.26;100.00
63700;BME280;49845;47.130;142.766;2023-09-19T10:32:44;99128.28;;;16.16;100.00
63700;BME280;49845;47.130;142.766;2023-09-19T10:35:17;99122.88;;;16.04;100.00
63700;BME280;49845;47.130;142.766;2023-09-19T10:37:50;99133.94;;;15.94;100.00
63700;BME280;49845;47.130;142.766;2023-09-19T10:40:23;99147.53;;;15.87;100.00
63700;BME280;49845;47.130;142.766;2023-09-19T10:43:01;99150.41;;;15.82;100.00
63700;BME280;49845;47.130;142.766;2023-09-19T10:45:39;99120.38;;;15.70;100.00
63700;BME280;49845;47.130;142.766;2023-09-19T10:48:13;99141.47;;;15.69;100.00
63700;BME280;49845;47.130;142.766;2023-09-19T10:50:51;99103.69;;;15.38;100.00
63700;BME280;49845;47.130;142.766;2023-09-19T10:53:39;99084.03;;;15.12;100.00
63700;BME280;49845;47.130;142.766;2023-09-19T10:56:30;99153.47;;;15.59;100.00
63700;BME280;49845;47.130;142.766;2023-09-19T10:59:12;99133.66;;;15.51;100.00
63700;BME280;49845;47.130;142.766;2023-09-19T11:01:49;99155.81;;;15.47;100.00
63700;BME280;49845;47.130;142.766;2023-09-19T11:04:33;99121.31;;;15.20;100.00
63700;BME280;49845;47.130;142.766;2023-09-19T11:07:28;99159.03;;;15.37;100.00
63700;BME280;49845;47.130;142.766;2023-09-19T11:10:09;99149.16;;;15.24;100.00
63700;BME280;49845;47.130;142.766;2023-09-19T11:12:59;99133.72;;;15.34;100.00
63700;BME280;49845;47.130;142.766;2023-09-19T11:16:17;99102.50;;;15.28;100.00
63700;BME280;49845;47.130;142.766;2023-09-19T11:18:55;99109.78;;;15.23;100.00
63700;BME280;49845;47.130;142.766;2023-09-19T11:21:52;99095.78;;;14.89;100.00
63700;BME280;49845;47.130;142.766;2023-09-19T11:24:31;99062.97;;;14.96;100.00
63700;BME280;49845;47.130;142.766;2023-09-19T11:27:13;99108.16;;;15.20;100.00
63700;BME280;49845;47.130;142.766;2023-09-19T11:29:47;99107.75;;;15.28;100.00
63700;BME280;49845;47.130;142.766;2023-09-19T11:35:59;99107.41;;;15.34;100.00
63700;BME280;49845;47.130;142.766;2023-09-19T11:38:58;99053.91;;;15.34;100.00
63700;BME280;49845;47.130;142.766;2023-09-19T11:41:41;99047.63;;;15.36;100.00
63700;BME280;49845;47.130;142.766;2023-09-19T11:44:46;99000.34;;;15.19;100.00
63700;BME280;49845;47.130;142.766;2023-09-19T11:47:27;99090.19;;;15.60;100.00
63700;BME280;49845;47.130;142.766;2023-09-19T11:50:18;99063.56;;;15.65;100.00
63700;BME280;49845;47.130;142.766;2023-09-19T11:52:53;99074.03;;;15.66;100.00
63700;BME280;49845;47.130;142.766;2023-09-19T11:55:28;99052.03;;;15.67;100.00
63700;BME280;49845;47.130;142.766;2023-09-19T11:58:07;99063.09;;;15.74;100.00
63700;BME280;49845;47.130;142.766;2023-09-19T12:00:38;99020.84;;;15.60;100.00
63700;BME280;49845;47.130;142.766;2023-09-19T12:03:12;99043.81;;;15.73;100.00
63700;BME280;49845;47.130;142.766;2023-09-19T12:17:14;99071.06;;;15.88;100.00
63700;BME280;49845;47.130;142.766;2023-09-19T12:19:51;99069.19;;;15.90;100.00
63700;BME280;49845;47.130;142.766;2023-09-19T12:23:00;99059.69;;;15.88;100.00
63700;BME280;49845;47.130;142.766;2023-09-19T12:26:40;99050.00;;;15.88;100.00
63700;BME280;49845;47.130;142.766;2023-09-19T12:29:16;99049.59;;;15.80;100.00
63700;BME280;49845;47.130;142.766;2023-09-19T12:31:51;99035.66;;;15.78;100.00
63700;BME280;49845;47.130;142.766;2023-09-19T12:34:28;99037.75;;;15.87;100.00
63700;BME280;49845;47.130;142.766;2023-09-19T12:37:07;99038.50;;;15.89;100.00
63700;BME280;49845;47.130;142.766;2023-09-19T12:39:46;99030.59;;;15.89;100.00
63700;BME280;49845;47.130;142.766;2023-09-19T12:42:21;99031.91;;;15.82;100.00
63700;BME280;49845;47.130;142.766;2023-09-19T12:44:52;98988.94;;;15.66;100.00
63700;BME280;49845;47.130;142.766;2023-09-19T12:47:27;99037.41;;;15.93;100.00
63700;BME280;49845;47.130;142.766;2023-09-19T12:53:29;99016.91;;;15.99;100.00
63700;BME280;49845;47.130;142.766;2023-09-19T12:56:02;99002.78;;;16.00;100.00
63700;BME280;49845;47.130;142.766;2023-09-19T12:58:48;99005.06;;;16.06;100.00
63700;BME280;49845;47.130;142.766;2023-09-19T13:01:20;98996.03;;;16.10;100.00
63700;BME280;49845;47.130;142.766;2023-09-19T13:04:13;98995.69;;;16.16;100.00
63700;BME280;49845;47.130;142.766;2023-09-19T13:06:56;98982.00;;;16.09;100.00
63700;BME280;49845;47.130;142.766;2023-09-19T13:09:29;99003.97;;;16.24;100.00
63700;BME280;49845;47.130;142.766;2023-09-19T13:15:08;98996.44;;;16.32;100.00
63700;BME280;49845;47.130;142.766;2023-09-19T13:17:47;98992.50;;;16.39;100.00
63700;BME280;49845;47.130;142.766;2023-09-19T13:20:22;98985.34;;;16.42;100.00
63700;BME280;49845;47.130;142.766;2023-09-19T13:22:59;98978.41;;;16.41;100.00
63700;BME280;49845;47.130;142.766;2023-09-19T13:25:38;98985.63;;;16.37;100.00
63700;BME280;49845;47.130;142.766;2023-09-19T13:28:09;98980.34;;;16.37;100.00
63700;BME280;49845;47.130;142.766;2023-09-19T13:30:45;98976.03;;;16.36;100.00
63700;BME280;49845;47.130;142.766;2023-09-19T13:33:46;98962.38;;;16.29;100.00